createdAt,value
2019-04-21T00:00:13.180Z,1022.11
2019-04-21T00:01:12.395Z,1022.14
2019-04-21T00:02:09.144Z,1022.09
2019-04-21T00:03:15.207Z,1022.10
2019-04-21T00:04:21.117Z,1022.10
2019-04-21T00:05:35.157Z,1022.07
2019-04-21T00:06:31.556Z,1022.09
2019-04-21T00:07:29.684Z,1022.06
2019-04-21T00:08:30.959Z,1022.04
2019-04-21T00:09:36.027Z,1022.00
2019-04-21T00:10:36.071Z,1022.04
2019-04-21T00:11:29.879Z,1022.05
2019-04-21T00:12:27.314Z,1022.06
2019-04-21T00:13:23.831Z,1022.03
2019-04-21T00:14:17.913Z,1022.04
2019-04-21T00:15:19.387Z,1022.04
2019-04-21T00:16:12.035Z,1022.01
2019-04-21T00:17:12.980Z,1022.00
2019-04-21T00:18:10.443Z,1022.03
2019-04-21T00:19:14.327Z,1022.01
2019-04-21T00:20:17.792Z,1022.00
2019-04-21T00:21:15.222Z,1022.00
2019-04-21T00:22:19.408Z,1022.02
2019-04-21T00:23:24.292Z,1021.99
2019-04-21T00:24:21.541Z,1021.98
2019-04-21T00:25:25.214Z,1021.99
2019-04-21T00:26:25.377Z,1021.93
2019-04-21T00:27:24.467Z,1021.94
2019-04-21T00:28:33.169Z,1021.93
2019-04-21T00:29:31.389Z,1021.93
2019-04-21T00:30:26.941Z,1021.93
2019-04-21T00:31:24.638Z,1021.95
2019-04-21T00:32:22.182Z,1021.94
2019-04-21T00:33:13.887Z,1021.91
2019-04-21T00:34:06.714Z,1021.90
2019-04-21T00:35:11.688Z,1021.96
2019-04-21T00:36:13.336Z,1021.92
2019-04-21T00:37:18.917Z,1021.93
2019-04-21T00:38:25.026Z,1021.94
2019-04-21T00:39:41.572Z,1021.94
2019-04-21T00:40:27.811Z,1021.89
2019-04-21T00:41:29.682Z,1021.91
2019-04-21T00:42:22.739Z,1021.89
2019-04-21T00:43:23.373Z,1021.89
2019-04-21T00:44:17.342Z,1021.85
2019-04-21T00:45:20.636Z,1021.86
2019-04-21T00:46:17.482Z,1021.86
2019-04-21T00:47:28.944Z,1021.81
2019-04-21T00:48:32.952Z,1021.84
2019-04-21T00:49:19.695Z,1021.83
2019-04-21T00:50:27.863Z,1021.83
2019-04-21T00:51:33.154Z,1021.83
2019-04-21T00:52:43.661Z,1021.82
2019-04-21T00:53:37.125Z,1021.77
2019-04-21T00:54:33.109Z,1021.77
2019-04-21T00:56:30.427Z,1021.81
2019-04-21T00:57:32.571Z,1021.77
2019-04-21T00:58:28.678Z,1021.74
2019-04-21T00:59:28.205Z,1021.75
2019-04-21T01:00:42.241Z,1021.74
2019-04-21T01:01:28.398Z,1021.74
2019-04-21T01:02:26.437Z,1021.77
2019-04-21T01:03:26.427Z,1021.78
2019-04-21T01:04:30.663Z,1021.74
2019-04-21T01:05:33.867Z,1021.75
2019-04-21T01:06:29.082Z,1021.71
2019-04-21T01:07:30.466Z,1021.75
2019-04-21T01:08:25.150Z,1021.76
2019-04-21T01:09:25.933Z,1021.80
2019-04-21T01:10:17.476Z,1021.76
2019-04-21T01:11:23.846Z,1021.76
2019-04-21T01:12:32.110Z,1021.77
2019-04-21T01:13:27.286Z,1021.73
2019-04-21T01:14:30.092Z,1021.75
2019-04-21T01:15:32.519Z,1021.75
2019-04-21T01:16:27.590Z,1021.73
2019-04-21T01:17:23.213Z,1021.74
2019-04-21T01:18:22.981Z,1021.76
2019-04-21T01:19:21.130Z,1021.73
2019-04-21T01:20:16.162Z,1021.75
2019-04-21T01:21:13.739Z,1021.78
2019-04-21T01:22:02.590Z,1021.74
2019-04-21T01:23:02.501Z,1021.76
2019-04-21T01:24:11.823Z,1021.75
2019-04-21T01:25:13.307Z,1021.74
2019-04-21T01:26:18.018Z,1021.76
2019-04-21T01:27:11.154Z,1021.74
2019-04-21T01:28:18.918Z,1021.75
2019-04-21T01:29:22.434Z,1021.71
2019-04-21T01:30:22.318Z,1021.71
2019-04-21T01:31:17.530Z,1021.70
2019-04-21T01:32:23.718Z,1021.72
2019-04-21T01:33:27.757Z,1021.67
2019-04-21T01:34:22.022Z,1021.69
2019-04-21T01:35:21.434Z,1021.71
2019-04-21T01:36:18.110Z,1021.67
2019-04-21T01:37:25.198Z,1021.68
2019-04-21T01:38:21.610Z,1021.67
2019-04-21T01:39:29.411Z,1021.66
2019-04-21T01:41:25.496Z,1021.66
2019-04-21T01:42:21.138Z,1021.64
2019-04-21T01:43:20.080Z,1021.65
2019-04-21T01:44:28.074Z,1021.64
2019-04-21T01:45:22.442Z,1021.60
2019-04-21T01:46:13.899Z,1021.63
2019-04-21T01:47:17.481Z,1021.58
2019-04-21T01:48:15.884Z,1021.58
2019-04-21T01:49:11.525Z,1021.57
2019-04-21T01:50:19.827Z,1021.56
2019-04-21T01:51:16.039Z,1021.53
2019-04-21T01:52:24.059Z,1021.51
2019-04-21T01:53:23.894Z,1021.51
2019-04-21T01:54:21.924Z,1021.49
2019-04-21T01:55:18.337Z,1021.46
2019-04-21T01:56:17.981Z,1021.46
2019-04-21T01:57:19.419Z,1021.44
2019-04-21T01:58:11.717Z,1021.48
2019-04-21T01:59:06.891Z,1021.50
2019-04-21T02:00:12.261Z,1021.48
2019-04-21T02:01:21.652Z,1021.52
2019-04-21T02:02:20.342Z,1021.47
2019-04-21T02:03:34.421Z,1021.51
2019-04-21T02:04:23.989Z,1021.51
2019-04-21T02:05:27.012Z,1021.52
2019-04-21T02:06:21.426Z,1021.53
2019-04-21T02:07:20.643Z,1021.50
2019-04-21T02:08:20.167Z,1021.49
2019-04-21T02:09:15.393Z,1021.51
2019-04-21T02:10:20.870Z,1021.52
2019-04-21T02:11:24.530Z,1021.49
2019-04-21T02:12:21.007Z,1021.50
2019-04-21T02:13:17.179Z,1021.51
2019-04-21T02:14:23.552Z,1021.48
2019-04-21T02:15:26.869Z,1021.49
2019-04-21T02:16:19.039Z,1021.49
2019-04-21T02:17:19.772Z,1021.51
2019-04-21T02:18:17.014Z,1021.47
2019-04-21T02:19:13.876Z,1021.49
2019-04-21T02:20:12.009Z,1021.49
2019-04-21T02:21:14.341Z,1021.50
2019-04-21T02:22:19.248Z,1021.47
2019-04-21T02:23:28.263Z,1021.50
2019-04-21T02:24:20.463Z,1021.49
2019-04-21T02:25:20.938Z,1021.47
2019-04-21T02:26:16.462Z,1021.48
2019-04-21T02:27:19.231Z,1021.47
2019-04-21T02:28:22.418Z,1021.41
2019-04-21T02:29:20.654Z,1021.47
2019-04-21T02:30:29.415Z,1021.47
2019-04-21T02:31:30.528Z,1021.41
2019-04-21T02:32:28.633Z,1021.45
2019-04-21T02:33:36.136Z,1021.45
2019-04-21T02:34:25.880Z,1021.40
2019-04-21T02:36:44.814Z,1021.40
2019-04-21T02:37:36.695Z,1021.42
2019-04-21T02:38:34.487Z,1021.39
2019-04-21T02:40:29.795Z,1021.39
2019-04-21T02:41:31.157Z,1021.39
2019-04-21T02:42:33.018Z,1021.42
2019-04-21T02:44:31.571Z,1021.37
2019-04-21T02:45:40.928Z,1021.40
2019-04-21T02:46:31.304Z,1021.37
2019-04-21T02:47:38.961Z,1021.37
2019-04-21T02:48:28.729Z,1021.39
2019-04-21T02:50:43.378Z,1021.38
2019-04-21T02:51:27.950Z,1021.40
2019-04-21T02:52:31.742Z,1021.40
2019-04-21T02:53:30.536Z,1021.35
2019-04-21T02:55:22.067Z,1021.34
2019-04-21T02:56:37.525Z,1021.30
2019-04-21T02:57:25.844Z,1021.33
2019-04-21T02:58:34.732Z,1021.30
2019-04-21T02:59:22.678Z,1021.33
2019-04-21T03:02:35.484Z,1021.26
2019-04-21T03:03:29.545Z,1021.32
2019-04-21T03:04:28.205Z,1021.32
2019-04-21T03:05:29.120Z,1021.32
2019-04-21T03:06:31.447Z,1021.31
2019-04-21T03:07:19.180Z,1021.29
2019-04-21T03:08:40.395Z,1021.25
2019-04-21T03:09:24.415Z,1021.25
2019-04-21T03:10:26.636Z,1021.21
2019-04-21T03:11:21.399Z,1021.25
2019-04-21T03:12:18.167Z,1021.20
2019-04-21T03:13:29.763Z,1021.14
2019-04-21T03:18:24.321Z,1021.04
2019-04-21T03:19:31.291Z,1021.02
2019-04-21T03:20:23.806Z,1021.08
2019-04-21T03:21:22.072Z,1021.03
2019-04-21T03:22:38.200Z,1021.03
2019-04-21T03:24:25.841Z,1021.03
2019-04-21T03:25:39.113Z,1021.03
2019-04-21T03:26:33.903Z,1021.01
2019-04-21T03:28:22.672Z,1021.00
2019-04-21T03:29:28.846Z,1020.97
2019-04-21T03:32:55.385Z,1020.91
2019-04-21T03:34:51.467Z,1020.88
2019-04-21T03:36:02.139Z,1020.91
2019-04-21T03:37:28.470Z,1020.90
2019-04-21T03:38:37.485Z,1020.89
2019-04-21T03:39:17.998Z,1020.91
2019-04-21T03:41:26.881Z,1020.90
2019-04-21T03:43:23.162Z,1020.88
2019-04-21T03:44:26.673Z,1020.90
2019-04-21T03:45:30.968Z,1020.95
2019-04-21T03:46:28.230Z,1020.90
2019-04-21T03:47:22.971Z,1020.89
2019-04-21T03:48:38.288Z,1020.92
2019-04-21T03:49:28.856Z,1020.92
2019-04-21T03:51:21.415Z,1020.88
2019-04-21T03:52:38.809Z,1020.91
2019-04-21T03:53:43.789Z,1020.88
2019-04-21T03:54:16.053Z,1020.86
2019-04-21T03:56:27.214Z,1020.88
2019-04-21T03:57:38.044Z,1020.84
2019-04-21T03:59:21.009Z,1020.87
2019-04-21T04:00:34.582Z,1020.88
2019-04-21T04:02:22.974Z,1020.87
2019-04-21T04:03:42.074Z,1020.88
2019-04-21T04:04:30.632Z,1020.89
2019-04-21T04:05:24.321Z,1020.90
2019-04-21T04:06:20.598Z,1020.89
2019-04-21T04:08:38.926Z,1020.89
2019-04-21T04:09:41.740Z,1020.86
2019-04-21T04:10:40.749Z,1020.87
2019-04-21T04:12:13.448Z,1020.85
2019-04-21T04:13:34.183Z,1020.84
2019-04-21T04:15:20.537Z,1020.88
2019-04-21T04:17:16.895Z,1020.82
2019-04-21T04:18:28.311Z,1020.83
2019-04-21T04:19:30.081Z,1020.82
2019-04-21T04:20:22.242Z,1020.84
2019-04-21T04:22:24.908Z,1020.83
2019-04-21T04:24:24.436Z,1020.83
2019-04-21T04:25:17.468Z,1020.86
2019-04-21T04:27:33.672Z,1020.83
2019-04-21T04:28:18.946Z,1020.85
2019-04-21T04:29:19.823Z,1020.83
2019-04-21T04:31:27.145Z,1020.83
2019-04-21T04:32:23.230Z,1020.88
2019-04-21T04:33:21.311Z,1020.85
2019-04-21T04:34:22.339Z,1020.87
2019-04-21T04:36:31.147Z,1020.89
2019-04-21T04:37:28.740Z,1020.84
2019-04-21T04:38:26.713Z,1020.88
2019-04-21T04:39:36.536Z,1020.82
2019-04-21T04:40:19.676Z,1020.86
2019-04-21T04:41:33.172Z,1020.87
2019-04-21T04:42:27.006Z,1020.87
2019-04-21T04:43:23.294Z,1020.84
2019-04-21T04:44:36.445Z,1020.89
2019-04-21T04:45:26.448Z,1020.89
2019-04-21T04:46:20.331Z,1020.88
2019-04-21T04:47:18.423Z,1020.89
2019-04-21T04:48:24.427Z,1020.92
2019-04-21T04:49:23.656Z,1020.94
2019-04-21T04:50:09.952Z,1020.92
2019-04-21T04:51:14.510Z,1020.90
2019-04-21T04:53:20.458Z,1020.93
2019-04-21T04:54:19.878Z,1020.94
2019-04-21T04:55:19.069Z,1020.92
2019-04-21T04:57:40.090Z,1020.94
2019-04-21T04:58:54.620Z,1020.93
2019-04-21T05:00:18.097Z,1020.90
2019-04-21T05:01:33.893Z,1020.87
2019-04-21T05:03:18.910Z,1020.87
2019-04-21T05:04:15.874Z,1020.91
2019-04-21T05:05:23.804Z,1020.93
2019-04-21T05:06:28.085Z,1020.92
2019-04-21T05:07:17.290Z,1020.90
2019-04-21T05:08:24.367Z,1020.90
2019-04-21T05:09:15.111Z,1020.92
2019-04-21T05:11:23.383Z,1020.85
2019-04-21T05:12:09.271Z,1020.89
2019-04-21T05:13:16.144Z,1020.84
2019-04-21T05:16:26.370Z,1020.85
2019-04-21T05:17:14.513Z,1020.88
2019-04-21T05:18:35.082Z,1020.86
2019-04-21T05:20:13.656Z,1020.82
2019-04-21T05:22:14.139Z,1020.84
2019-04-21T05:23:05.862Z,1020.83
2019-04-21T05:24:02.146Z,1020.82
2019-04-21T05:24:59.468Z,1020.80
2019-04-21T05:25:54.293Z,1020.81
2019-04-21T05:26:59.576Z,1020.77
2019-04-21T05:27:56.335Z,1020.81
2019-04-21T05:28:50.981Z,1020.84
2019-04-21T05:30:15.327Z,1020.83
2019-04-21T05:31:09.082Z,1020.82
2019-04-21T05:32:01.472Z,1020.85
2019-04-21T05:33:05.581Z,1020.85
2019-04-21T05:34:03.134Z,1020.85
2019-04-21T05:35:01.564Z,1020.87
2019-04-21T05:36:07.681Z,1020.88
2019-04-21T05:37:03.941Z,1020.88
2019-04-21T05:38:03.028Z,1020.83
2019-04-21T05:38:58.387Z,1020.84
2019-04-21T05:39:57.957Z,1020.82
2019-04-21T05:40:57.618Z,1020.84
2019-04-21T05:41:50.621Z,1020.82
2019-04-21T05:42:55.754Z,1020.84
2019-04-21T05:44:03.837Z,1020.82
2019-04-21T05:45:08.089Z,1020.79
2019-04-21T05:46:21.241Z,1020.86
2019-04-21T05:47:15.835Z,1020.85
2019-04-21T05:48:12.235Z,1020.86
2019-04-21T05:49:05.094Z,1020.86
2019-04-21T05:50:00.975Z,1020.86
2019-04-21T05:51:01.980Z,1020.86
2019-04-21T05:51:55.624Z,1020.87
2019-04-21T05:52:57.308Z,1020.82
2019-04-21T05:54:10.573Z,1020.86
2019-04-21T05:55:01.189Z,1020.85
2019-04-21T05:56:07.075Z,1020.86
2019-04-21T05:56:59.810Z,1020.87
2019-04-21T05:58:02.583Z,1020.87
2019-04-21T05:59:03.373Z,1020.90
2019-04-21T06:00:02.645Z,1020.92
2019-04-21T06:02:06.111Z,1020.93
2019-04-21T06:03:04.056Z,1020.92
2019-04-21T06:04:03.608Z,1020.93
2019-04-21T06:06:10.762Z,1020.95
2019-04-21T06:07:06.159Z,1020.96
2019-04-21T06:08:00.453Z,1020.94
2019-04-21T06:08:59.515Z,1020.94
2019-04-21T06:09:59.456Z,1020.92
2019-04-21T06:11:02.072Z,1020.94
2019-04-21T06:12:02.972Z,1020.91
2019-04-21T06:13:02.294Z,1020.93
2019-04-21T06:14:06.069Z,1020.94
2019-04-21T06:15:12.323Z,1020.91
2019-04-21T06:16:04.948Z,1020.91
2019-04-21T06:17:03.953Z,1020.91
2019-04-21T06:18:07.905Z,1020.88
2019-04-21T06:18:58.764Z,1020.90
2019-04-21T06:20:01.383Z,1020.86
2019-04-21T06:20:59.451Z,1020.86
2019-04-21T06:21:57.441Z,1020.84
2019-04-21T06:22:57.923Z,1020.84
2019-04-21T06:23:57.319Z,1020.86
2019-04-21T06:26:28.205Z,1020.84
2019-04-21T06:27:17.659Z,1020.83
2019-04-21T06:27:59.981Z,1020.91
2019-04-21T06:28:59.910Z,1020.91
2019-04-21T06:30:01.529Z,1020.87
2019-04-21T06:32:52.763Z,1020.88
2019-04-21T06:34:00.518Z,1020.88
2019-04-21T06:35:14.889Z,1020.90
2019-04-21T06:37:14.658Z,1020.94
2019-04-21T06:37:56.544Z,1020.89
2019-04-21T06:39:06.380Z,1020.94
2019-04-21T06:40:15.170Z,1020.92
2019-04-21T06:41:07.855Z,1020.95
2019-04-21T06:41:58.481Z,1020.92
2019-04-21T06:43:11.345Z,1020.92
2019-04-21T06:44:09.489Z,1020.94
2019-04-21T06:45:06.208Z,1020.90
2019-04-21T06:46:02.211Z,1020.91
2019-04-21T06:47:01.761Z,1020.91
2019-04-21T06:47:57.827Z,1020.94
2019-04-21T06:48:59.939Z,1020.94
2019-04-21T06:49:58.599Z,1020.99
2019-04-21T06:51:06.869Z,1020.96
2019-04-21T06:52:07.319Z,1020.98
2019-04-21T06:53:10.783Z,1020.97
2019-04-21T06:55:03.326Z,1020.96
2019-04-21T06:56:00.006Z,1020.95
2019-04-21T06:57:10.091Z,1020.94
2019-04-21T06:58:00.693Z,1020.92
2019-04-21T06:58:55.506Z,1020.92
2019-04-21T06:59:57.194Z,1020.93
2019-04-21T07:00:56.390Z,1020.90
2019-04-21T07:01:56.676Z,1020.92
2019-04-21T07:04:06.867Z,1020.90
2019-04-21T07:05:03.547Z,1020.91
2019-04-21T07:06:04.681Z,1020.95
2019-04-21T07:06:53.697Z,1020.88
2019-04-21T07:08:14.845Z,1020.92
2019-04-21T07:09:07.437Z,1020.90
2019-04-21T07:09:59.805Z,1020.91
2019-04-21T07:10:59.488Z,1020.94
2019-04-21T07:11:56.811Z,1020.94
2019-04-21T07:12:53.516Z,1020.89
2019-04-21T07:14:14.832Z,1020.93
2019-04-21T07:14:56.269Z,1020.93
2019-04-21T07:16:00.586Z,1020.93
2019-04-21T07:16:59.596Z,1020.94
2019-04-21T07:17:57.807Z,1020.93
2019-04-21T07:19:05.931Z,1020.95
2019-04-21T07:19:57.102Z,1020.95
2019-04-21T07:20:53.215Z,1020.91
2019-04-21T07:21:51.328Z,1020.95
2019-04-21T07:22:54.798Z,1020.95
2019-04-21T07:24:03.147Z,1021.00
2019-04-21T07:24:58.680Z,1020.97
2019-04-21T07:25:54.899Z,1020.97
2019-04-21T07:26:55.659Z,1021.01
2019-04-21T07:27:57.084Z,1020.98
2019-04-21T07:29:01.851Z,1021.04
2019-04-21T07:29:59.650Z,1020.99
2019-04-21T07:30:59.505Z,1021.04
2019-04-21T07:31:59.893Z,1021.01
2019-04-21T07:32:56.525Z,1020.96
2019-04-21T07:35:00.134Z,1020.98
2019-04-21T07:35:54.105Z,1020.98
2019-04-21T07:36:56.073Z,1020.98
2019-04-21T07:37:53.457Z,1020.96
2019-04-21T07:38:49.846Z,1021.00
2019-04-21T07:39:53.141Z,1020.95
2019-04-21T07:40:48.382Z,1020.93
2019-04-21T07:41:49.642Z,1020.94
2019-04-21T07:42:47.722Z,1020.98
2019-04-21T07:43:42.856Z,1021.01
2019-04-21T07:44:46.390Z,1020.95
2019-04-21T07:45:45.985Z,1020.96
2019-04-21T07:46:45.206Z,1021.02
2019-04-21T07:47:53.099Z,1020.96
2019-04-21T07:48:53.553Z,1020.97
2019-04-21T07:49:55.215Z,1020.91
2019-04-21T07:50:52.046Z,1020.93
2019-04-21T07:52:53.234Z,1020.92
2019-04-21T07:53:59.586Z,1020.93
2019-04-21T07:55:01.640Z,1020.88
2019-04-21T07:55:31.785Z,1020.91
2019-04-21T07:56:34.857Z,1020.92
2019-04-21T07:57:44.201Z,1020.94
2019-04-21T07:58:56.266Z,1020.96
2019-04-21T08:00:08.384Z,1020.90
2019-04-21T08:01:04.781Z,1020.89
2019-04-21T08:01:50.039Z,1020.87
2019-04-21T08:02:51.159Z,1020.84
2019-04-21T08:03:56.960Z,1020.86
2019-04-21T08:05:02.969Z,1020.88
2019-04-21T08:05:52.614Z,1020.90
2019-04-21T08:06:52.091Z,1020.90
2019-04-21T08:07:52.031Z,1020.82
2019-04-21T08:08:48.970Z,1020.86
2019-04-21T08:09:46.441Z,1020.78
2019-04-21T08:10:44.153Z,1020.80
2019-04-21T08:11:44.285Z,1020.80
2019-04-21T08:12:47.768Z,1020.82
2019-04-21T08:14:00.598Z,1020.80
2019-04-21T08:14:52.036Z,1020.79
2019-04-21T08:16:04.724Z,1020.81
2019-04-21T08:16:54.000Z,1020.81
2019-04-21T08:17:47.288Z,1020.78
2019-04-21T08:18:45.537Z,1020.79
2019-04-21T08:19:43.049Z,1020.78
2019-04-21T08:20:50.527Z,1020.81
2019-04-21T08:21:53.062Z,1020.79
2019-04-21T08:22:51.025Z,1020.78
2019-04-21T08:23:48.362Z,1020.74
2019-04-21T08:24:51.877Z,1020.76
2019-04-21T08:25:58.889Z,1020.76
2019-04-21T08:26:51.549Z,1020.71
2019-04-21T08:28:58.882Z,1020.70
2019-04-21T08:30:04.459Z,1020.69
2019-04-21T08:30:47.853Z,1020.69
2019-04-21T08:33:05.480Z,1020.67
2019-04-21T08:34:55.956Z,1020.69
2019-04-21T08:36:47.701Z,1020.68
2019-04-21T08:37:43.352Z,1020.66
2019-04-21T08:38:51.495Z,1020.67
2019-04-21T08:39:56.512Z,1020.65
2019-04-21T08:41:05.141Z,1020.64
2019-04-21T08:41:48.455Z,1020.63
2019-04-21T08:42:48.577Z,1020.63
2019-04-21T08:43:44.705Z,1020.58
2019-04-21T08:44:46.842Z,1020.59
2019-04-21T08:45:46.859Z,1020.58
2019-04-21T08:46:49.216Z,1020.59
2019-04-21T08:47:50.285Z,1020.62
2019-04-21T08:48:52.769Z,1020.58
2019-04-21T08:49:49.162Z,1020.59
2019-04-21T08:50:47.533Z,1020.58
2019-04-21T08:51:48.560Z,1020.58
2019-04-21T08:52:48.840Z,1020.59
2019-04-21T08:53:47.574Z,1020.58
2019-04-21T08:54:51.530Z,1020.55
2019-04-21T08:55:50.784Z,1020.58
2019-04-21T08:56:46.708Z,1020.56
2019-04-21T08:57:50.849Z,1020.52
2019-04-21T08:58:50.626Z,1020.53
2019-04-21T08:59:46.002Z,1020.53
2019-04-21T09:00:47.339Z,1020.54
2019-04-21T09:01:43.069Z,1020.53
2019-04-21T09:02:49.513Z,1020.54
2019-04-21T09:03:43.255Z,1020.55
2019-04-21T09:04:40.065Z,1020.50
2019-04-21T09:05:46.721Z,1020.48
2019-04-21T09:07:10.555Z,1020.48
2019-04-21T09:07:49.300Z,1020.46
2019-04-21T09:08:49.693Z,1020.49
2019-04-21T09:10:39.578Z,1020.46
2019-04-21T09:11:41.965Z,1020.42
2019-04-21T09:12:43.149Z,1020.47
2019-04-21T09:13:42.566Z,1020.40
2019-04-21T09:14:41.917Z,1020.40
2019-04-21T09:15:41.941Z,1020.40
2019-04-21T09:16:40.725Z,1020.39
2019-04-21T09:17:37.732Z,1020.38
2019-04-21T09:18:38.073Z,1020.38
2019-04-21T09:19:54.992Z,1020.47
2019-04-21T09:20:47.337Z,1020.42
2019-04-21T09:21:45.513Z,1020.34
2019-04-21T09:22:41.535Z,1020.34
2019-04-21T09:23:39.146Z,1020.37
2019-04-21T09:24:42.699Z,1020.41
2019-04-21T09:25:48.327Z,1020.40
2019-04-21T09:26:43.519Z,1020.43
2019-04-21T09:27:42.459Z,1020.43
2019-04-21T09:28:35.490Z,1020.39
2019-04-21T09:29:33.206Z,1020.43
2019-04-21T09:30:24.079Z,1020.38
2019-04-21T09:31:28.981Z,1020.38
2019-04-21T09:32:26.800Z,1020.41
2019-04-21T09:33:28.069Z,1020.40
2019-04-21T09:34:30.499Z,1020.37
2019-04-21T09:35:24.120Z,1020.33
2019-04-21T09:36:25.417Z,1020.34
2019-04-21T09:37:36.692Z,1020.33
2019-04-21T09:38:29.930Z,1020.26
2019-04-21T09:39:25.649Z,1020.17
2019-04-21T09:40:30.097Z,1020.08
2019-04-21T09:41:25.538Z,1020.00
2019-04-21T09:42:33.349Z,1020.00
2019-04-21T09:43:30.759Z,1019.94
2019-04-21T09:44:30.471Z,1019.97
2019-04-21T09:45:22.957Z,1019.94
2019-04-21T09:46:23.196Z,1019.93
2019-04-21T09:47:24.949Z,1019.91
2019-04-21T09:48:24.225Z,1019.93
2019-04-21T09:49:27.033Z,1019.91
2019-04-21T09:50:22.169Z,1019.93
2019-04-21T09:51:21.915Z,1019.95
2019-04-21T09:52:25.715Z,1019.97
2019-04-21T09:53:28.777Z,1020.00
2019-04-21T09:54:27.742Z,1020.01
2019-04-21T09:55:24.367Z,1019.99
2019-04-21T09:56:32.469Z,1019.84
2019-04-21T09:57:31.381Z,1019.82
2019-04-21T09:58:29.343Z,1019.73
2019-04-21T09:59:28.151Z,1019.70
2019-04-21T10:00:25.341Z,1019.68
2019-04-21T10:01:28.787Z,1019.68
2019-04-21T10:02:32.782Z,1019.63
2019-04-21T10:03:21.255Z,1019.64
2019-04-21T10:04:20.962Z,1019.65
2019-04-21T10:05:21.436Z,1019.57
2019-04-21T10:06:20.870Z,1019.54
2019-04-21T10:07:26.470Z,1019.53
2019-04-21T10:08:20.629Z,1019.58
2019-04-21T10:09:21.799Z,1019.52
2019-04-21T10:10:20.479Z,1019.46
2019-04-21T10:11:21.056Z,1019.50
2019-04-21T10:12:20.338Z,1019.46
2019-04-21T10:13:20.862Z,1019.46
2019-04-21T10:14:20.169Z,1019.43
2019-04-21T10:15:23.245Z,1019.42
2019-04-21T10:16:20.017Z,1019.41
2019-04-21T10:17:19.942Z,1019.39
2019-04-21T10:18:19.869Z,1019.38
2019-04-21T10:19:20.999Z,1019.37
2019-04-21T10:20:20.165Z,1019.40
2019-04-21T10:21:19.774Z,1019.33
2019-04-21T10:22:21.008Z,1019.32
2019-04-21T10:23:19.482Z,1019.30
2019-04-21T10:24:20.232Z,1019.35
2019-04-21T10:25:20.743Z,1019.28
2019-04-21T10:26:19.256Z,1019.27
2019-04-21T10:27:19.194Z,1019.25
2019-04-21T10:28:19.156Z,1019.23
2019-04-21T10:29:24.233Z,1019.24
2019-04-21T10:30:20.109Z,1019.23
2019-04-21T10:31:18.869Z,1019.31
2019-04-21T10:32:21.617Z,1019.32
2019-04-21T10:33:18.719Z,1019.26
2019-04-21T10:34:19.145Z,1019.33
2019-04-21T10:35:21.162Z,1019.29
2019-04-21T10:36:19.107Z,1019.29
2019-04-21T10:37:18.829Z,1019.26
2019-04-21T10:38:27.971Z,1019.24
2019-04-21T10:39:18.261Z,1019.29
2019-04-21T10:40:18.185Z,1019.20
2019-04-21T10:41:19.263Z,1019.21
2019-04-21T10:42:19.423Z,1019.16
2019-04-21T10:43:22.071Z,1019.16
2019-04-21T10:44:19.005Z,1019.23
2019-04-21T10:45:18.898Z,1019.38
2019-04-21T10:46:19.057Z,1019.38
2019-04-21T10:47:18.605Z,1019.34
2019-04-21T10:48:18.819Z,1019.24
2019-04-21T10:49:18.896Z,1019.21
2019-04-21T10:50:18.359Z,1019.17
2019-04-21T10:51:17.346Z,1019.12
2019-04-21T10:52:17.274Z,1019.30
2019-04-21T10:53:17.196Z,1019.29
2019-04-21T10:54:17.886Z,1019.24
2019-04-21T10:55:32.103Z,1019.07
2019-04-21T10:56:25.217Z,1019.03
2019-04-21T10:57:16.897Z,1019.03
2019-04-21T10:58:18.210Z,1018.93
2019-04-21T10:59:16.750Z,1018.91
2019-04-21T11:00:17.548Z,1018.90
2019-04-21T11:01:16.793Z,1018.94
2019-04-21T11:02:17.054Z,1019.03
2019-04-21T11:03:17.131Z,1019.09
2019-04-21T11:04:21.839Z,1019.12
2019-04-21T11:05:16.777Z,1019.07
2019-04-21T11:06:16.887Z,1019.03
2019-04-21T11:07:19.582Z,1019.00
2019-04-21T11:08:24.724Z,1018.94
2019-04-21T11:09:16.025Z,1018.99
2019-04-21T11:10:16.175Z,1019.00
2019-04-21T11:11:16.256Z,1018.98
2019-04-21T11:12:15.786Z,1019.03
2019-04-21T11:13:16.605Z,1018.97
2019-04-21T11:14:15.639Z,1018.95
2019-04-21T11:15:16.973Z,1018.94
2019-04-21T11:16:15.505Z,1018.95
2019-04-21T11:17:16.448Z,1018.94
2019-04-21T11:18:15.713Z,1018.93
2019-04-21T11:19:15.924Z,1018.93
2019-04-21T11:20:15.213Z,1018.92
2019-04-21T11:21:16.538Z,1018.91
2019-04-21T11:22:15.076Z,1018.85
2019-04-21T11:23:16.372Z,1018.80
2019-04-21T11:24:16.250Z,1018.87
2019-04-21T11:25:15.832Z,1018.85
2019-04-21T11:26:15.904Z,1018.82
2019-04-21T11:27:15.011Z,1018.85
2019-04-21T11:28:14.700Z,1018.82
2019-04-21T11:29:14.970Z,1018.79
2019-04-21T11:30:15.654Z,1018.82
2019-04-21T11:31:15.389Z,1018.79
2019-04-21T11:32:14.779Z,1018.79
2019-04-21T11:33:15.355Z,1018.77
2019-04-21T11:34:15.370Z,1018.70
2019-04-21T11:35:15.050Z,1018.70
2019-04-21T11:36:15.288Z,1018.70
2019-04-21T11:37:14.333Z,1018.68
2019-04-21T11:38:19.036Z,1018.63
2019-04-21T11:39:25.599Z,1018.62
2019-04-21T11:40:17.644Z,1018.62
2019-04-21T11:41:13.912Z,1018.58
2019-04-21T11:42:13.726Z,1018.58
2019-04-21T11:43:13.758Z,1018.59
2019-04-21T11:44:14.094Z,1018.61
2019-04-21T11:45:14.598Z,1018.63
2019-04-21T11:46:13.467Z,1018.58
2019-04-21T11:47:14.296Z,1018.54
2019-04-21T11:48:14.318Z,1018.52
2019-04-21T11:49:13.254Z,1018.51
2019-04-21T11:50:13.191Z,1018.52
2019-04-21T11:51:13.230Z,1018.51
2019-04-21T11:52:13.291Z,1018.50
2019-04-21T11:53:12.992Z,1018.51
2019-04-21T11:54:13.026Z,1018.49
2019-04-21T11:55:14.247Z,1018.51
2019-04-21T11:56:12.791Z,1018.52
2019-04-21T11:57:20.293Z,1018.49
2019-04-21T11:58:13.922Z,1018.43
2019-04-21T11:59:12.591Z,1018.40
2019-04-21T12:00:13.525Z,1018.42
2019-04-21T12:01:13.749Z,1018.39
2019-04-21T12:02:12.392Z,1018.34
2019-04-21T12:03:15.171Z,1018.33
2019-04-21T12:04:13.750Z,1018.31
2019-04-21T12:05:12.192Z,1018.31
2019-04-21T12:06:13.257Z,1018.33
2019-04-21T12:07:13.260Z,1018.29
2019-04-21T12:08:23.077Z,1018.28
2019-04-21T12:09:11.998Z,1018.28
2019-04-21T12:10:11.860Z,1018.26
2019-04-21T12:11:11.781Z,1018.21
2019-04-21T12:12:11.746Z,1018.22
2019-04-21T12:13:12.089Z,1018.25
2019-04-21T12:14:12.081Z,1018.23
2019-04-21T12:15:14.081Z,1018.18
2019-04-21T12:16:12.762Z,1018.19
2019-04-21T12:17:12.104Z,1018.26
2019-04-21T12:18:12.124Z,1018.17
2019-04-21T12:19:12.483Z,1018.13
2019-04-21T12:20:11.181Z,1018.13
2019-04-21T12:21:11.466Z,1018.11
2019-04-21T12:22:18.205Z,1018.08
2019-04-21T12:23:12.110Z,1018.09
2019-04-21T12:24:11.134Z,1018.12
2019-04-21T12:25:11.262Z,1018.10
2019-04-21T12:26:10.782Z,1018.08
2019-04-21T12:27:11.930Z,1018.06
2019-04-21T12:28:12.070Z,1018.02
2019-04-21T12:29:10.581Z,1017.99
2019-04-21T12:30:11.444Z,1018.04
2019-04-21T12:31:11.553Z,1018.01
2019-04-21T12:32:10.381Z,1018.00
2019-04-21T12:33:10.306Z,1018.00
2019-04-21T12:34:10.262Z,1017.98
2019-04-21T12:35:10.174Z,1017.94
2019-04-21T12:36:11.487Z,1018.01
2019-04-21T12:37:10.939Z,1017.91
2019-04-21T12:38:10.869Z,1017.95
2019-04-21T12:39:10.662Z,1017.90
2019-04-21T12:40:10.532Z,1017.95
2019-04-21T12:41:10.679Z,1017.91
2019-04-21T12:42:09.708Z,1017.92
2019-04-21T12:43:10.491Z,1017.88
2019-04-21T12:44:10.736Z,1017.86
2019-04-21T12:45:09.773Z,1017.81
2019-04-21T12:46:09.710Z,1017.81
2019-04-21T12:47:10.073Z,1017.80
2019-04-21T12:48:10.421Z,1017.73
2019-04-21T12:49:09.822Z,1017.72
2019-04-21T12:50:09.184Z,1017.69
2019-04-21T12:51:10.110Z,1017.67
2019-04-21T12:52:09.357Z,1017.67
2019-04-21T12:53:09.799Z,1017.64
2019-04-21T12:54:09.854Z,1017.63
2019-04-21T12:55:09.451Z,1017.58
2019-04-21T12:56:09.484Z,1017.56
2019-04-21T12:57:09.560Z,1017.58
2019-04-21T12:58:08.648Z,1017.57
2019-04-21T12:59:09.918Z,1017.54
2019-04-21T13:00:09.020Z,1017.54
2019-04-21T13:01:09.325Z,1017.50
2019-04-21T13:02:09.505Z,1017.52